createdAt,value
2023-02-25T00:01:34.787Z,6.70
2023-02-25T00:04:02.348Z,6.70
2023-02-25T00:06:29.841Z,6.70
2023-02-25T00:08:57.604Z,6.70
2023-02-25T00:11:26.098Z,6.70
2023-02-25T00:13:54.035Z,6.70
2023-02-25T00:16:23.673Z,6.70
2023-02-25T00:18:55.846Z,6.70
2023-02-25T00:21:24.519Z,6.70
2023-02-25T00:23:53.491Z,6.70
2023-02-25T00:26:21.985Z,6.60
2023-02-25T00:28:50.146Z,6.60
2023-02-25T00:31:20.872Z,6.60
2023-02-25T00:33:48.979Z,6.50
2023-02-25T00:36:23.284Z,6.50
2023-02-25T00:38:52.885Z,6.50
2023-02-25T00:41:24.243Z,6.40
2023-02-25T00:43:54.535Z,6.40
2023-02-25T00:46:23.099Z,6.40
2023-02-25T00:48:51.449Z,6.30
2023-02-25T00:51:22.979Z,6.30
2023-02-25T00:53:52.278Z,6.30
2023-02-25T00:56:20.335Z,6.30
2023-02-25T00:58:49.385Z,6.20
2023-02-25T01:01:24.172Z,6.20
2023-02-25T01:03:56.122Z,6.10
2023-02-25T01:06:25.304Z,6.10
2023-02-25T01:08:53.409Z,6.00
2023-02-25T01:11:28.979Z,6.00
2023-02-25T01:14:03.030Z,6.00
2023-02-25T01:16:32.857Z,5.90
2023-02-25T01:19:04.000Z,5.90
2023-02-25T01:21:53.270Z,5.80
2023-02-25T01:24:23.960Z,5.70
2023-02-25T01:26:56.970Z,5.70
2023-02-25T01:29:31.290Z,5.70
2023-02-25T01:32:01.354Z,5.60
2023-02-25T01:34:29.625Z,5.60
2023-02-25T01:36:58.393Z,5.60
2023-02-25T01:39:27.624Z,5.60
2023-02-25T01:41:57.144Z,5.60
2023-02-25T01:44:34.974Z,5.60
2023-02-25T01:47:02.823Z,5.70
2023-02-25T01:49:44.701Z,5.70
2023-02-25T01:52:24.207Z,5.70
2023-02-25T01:54:55.351Z,5.80
2023-02-25T01:57:24.700Z,5.80
2023-02-25T01:59:54.648Z,5.80
2023-02-25T02:02:25.289Z,5.90
2023-02-25T02:04:54.683Z,5.90
2023-02-25T02:07:24.754Z,5.90
2023-02-25T02:09:59.838Z,5.90
2023-02-25T02:12:37.930Z,6.00
2023-02-25T02:15:09.641Z,6.00
2023-02-25T02:17:41.338Z,6.00
2023-02-25T02:20:33.250Z,6.00
2023-02-25T02:23:22.081Z,6.10
2023-02-25T02:26:15.136Z,6.00
2023-02-25T02:29:14.442Z,6.00
2023-02-25T02:32:19.115Z,6.00
2023-02-25T02:35:18.722Z,6.00
2023-02-25T02:37:45.977Z,6.10
2023-02-25T02:40:34.657Z,6.10
2023-02-25T02:43:20.374Z,6.10
2023-02-25T02:46:07.399Z,6.10
2023-02-25T02:48:56.232Z,6.20
2023-02-25T02:51:30.363Z,6.10
2023-02-25T02:54:03.284Z,6.10
2023-02-25T02:56:34.826Z,6.10
2023-02-25T02:59:14.208Z,6.10
2023-02-25T03:01:46.852Z,6.10
2023-02-25T03:04:18.094Z,6.10
2023-02-25T03:06:49.129Z,6.10
2023-02-25T03:09:24.109Z,6.10
2023-02-25T03:11:52.190Z,6.10
2023-02-25T03:14:19.861Z,6.10
2023-02-25T03:16:56.044Z,6.10
2023-02-25T03:19:36.158Z,6.10
2023-02-25T03:22:33.178Z,6.10
2023-02-25T03:25:32.069Z,6.10
2023-02-25T03:28:15.846Z,6.10
2023-02-25T03:30:56.740Z,6.10
2023-02-25T03:33:34.560Z,6.10
2023-02-25T03:36:09.763Z,6.10
2023-02-25T03:38:40.233Z,6.10
2023-02-25T03:41:10.782Z,6.00
2023-02-25T03:43:50.481Z,6.00
2023-02-25T03:46:20.180Z,6.00
2023-02-25T03:48:48.615Z,6.00
2023-02-25T03:51:21.809Z,5.90
2023-02-25T03:53:50.171Z,5.90
2023-02-25T03:56:22.333Z,5.80
2023-02-25T03:58:50.270Z,5.80
2023-02-25T04:01:27.914Z,5.80
2023-02-25T04:03:55.468Z,5.80
2023-02-25T04:06:24.950Z,5.80
2023-02-25T04:08:52.804Z,5.80
2023-02-25T04:11:20.236Z,5.80
2023-02-25T04:13:48.484Z,5.80
2023-02-25T04:16:17.453Z,5.80
2023-02-25T04:18:45.924Z,5.80
2023-02-25T04:21:35.378Z,5.80
2023-02-25T04:24:05.495Z,5.80
2023-02-25T04:26:33.748Z,5.80
2023-02-25T04:29:01.211Z,5.80
2023-02-25T04:31:28.710Z,5.80
2023-02-25T04:33:58.219Z,5.80
2023-02-25T04:36:32.389Z,5.80
2023-02-25T04:39:02.580Z,5.80
2023-02-25T04:41:32.698Z,5.80
2023-02-25T04:44:00.754Z,5.80
2023-02-25T04:46:28.219Z,5.80
2023-02-25T04:48:56.158Z,5.80
2023-02-25T04:51:23.562Z,5.80
2023-02-25T04:53:50.861Z,5.80
2023-02-25T04:56:18.501Z,5.80
2023-02-25T04:58:46.655Z,5.80
2023-02-25T05:01:14.745Z,5.80
2023-02-25T05:03:42.079Z,5.80
2023-02-25T05:06:09.994Z,5.80
2023-02-25T05:08:37.682Z,5.80
2023-02-25T05:11:05.491Z,5.80
2023-02-25T05:13:32.865Z,5.80
2023-02-25T05:16:10.807Z,5.80
2023-02-25T05:18:39.280Z,5.90
2023-02-25T05:21:15.527Z,5.90
2023-02-25T05:23:44.194Z,5.90
2023-02-25T05:26:13.956Z,6.00
2023-02-25T05:28:43.527Z,5.90
2023-02-25T05:31:12.610Z,6.00
2023-02-25T05:33:41.001Z,6.00
2023-02-25T05:36:10.988Z,6.00
2023-02-25T05:38:38.790Z,6.00
2023-02-25T05:41:06.753Z,6.00
2023-02-25T05:43:35.228Z,6.00
2023-02-25T05:46:03.292Z,6.00
2023-02-25T05:48:33.541Z,6.00
2023-02-25T05:51:07.008Z,6.00
2023-02-25T05:53:34.574Z,6.00
2023-02-25T05:56:09.631Z,6.00
2023-02-25T05:58:37.633Z,6.00
2023-02-25T06:01:14.716Z,6.00
2023-02-25T06:03:44.196Z,6.00
2023-02-25T06:06:14.893Z,6.00
2023-02-25T06:08:45.734Z,6.00
2023-02-25T06:11:18.195Z,6.00
2023-02-25T06:13:47.349Z,6.00
2023-02-25T06:16:14.809Z,6.00
2023-02-25T06:18:42.127Z,6.00
2023-02-25T06:21:11.884Z,6.00
2023-02-25T06:23:41.105Z,6.00
2023-02-25T06:26:09.960Z,6.00
2023-02-25T06:28:37.613Z,6.00
2023-02-25T06:31:14.745Z,6.00
2023-02-25T06:33:42.347Z,6.00
2023-02-25T06:36:12.674Z,6.00
2023-02-25T06:38:40.046Z,6.00
2023-02-25T06:41:09.696Z,6.00
2023-02-25T06:43:38.267Z,6.00
2023-02-25T06:46:10.838Z,6.10
2023-02-25T06:48:38.669Z,6.00
2023-02-25T06:51:10.548Z,6.10
2023-02-25T06:53:43.029Z,6.00
2023-02-25T06:56:12.629Z,6.00
2023-02-25T06:58:40.694Z,6.10
2023-02-25T07:01:10.184Z,6.10
2023-02-25T07:03:37.832Z,6.10
2023-02-25T07:06:05.938Z,6.10
2023-02-25T07:08:33.187Z,6.10
2023-02-25T07:11:15.022Z,6.20
2023-02-25T07:13:43.578Z,6.20
2023-02-25T07:16:12.550Z,6.10
2023-02-25T07:18:41.619Z,6.20
2023-02-25T07:21:10.070Z,6.20
2023-02-25T07:23:37.465Z,6.20
2023-02-25T07:26:06.600Z,6.20
2023-02-25T07:28:35.865Z,6.20
2023-02-25T07:31:09.221Z,6.30
2023-02-25T07:33:37.702Z,6.30
2023-02-25T07:36:05.561Z,6.40
2023-02-25T07:38:32.822Z,6.40
2023-02-25T07:41:08.724Z,6.50
2023-02-25T07:43:36.291Z,6.50
2023-02-25T07:46:04.479Z,6.60
2023-02-25T07:48:32.506Z,6.50
2023-02-25T07:51:15.609Z,6.60
2023-02-25T07:53:43.138Z,6.60
2023-02-25T07:56:11.573Z,6.60
2023-02-25T07:58:39.336Z,6.60
2023-02-25T08:01:11.565Z,6.60
2023-02-25T08:03:39.012Z,6.70
2023-02-25T08:06:08.172Z,6.70
2023-02-25T08:08:36.640Z,6.80
2023-02-25T08:11:12.295Z,6.90
2023-02-25T08:13:40.072Z,6.90
2023-02-25T08:16:09.782Z,7.00
2023-02-25T08:18:37.578Z,7.20
2023-02-25T08:21:05.667Z,7.40
2023-02-25T08:23:33.267Z,7.70
2023-02-25T08:26:01.310Z,8.00
2023-02-25T08:28:34.356Z,8.10
2023-02-25T08:31:04.130Z,8.40
2023-02-25T08:33:31.915Z,8.50
2023-02-25T08:36:14.574Z,8.60
2023-02-25T08:38:42.495Z,8.70
2023-02-25T08:41:09.955Z,8.60
2023-02-25T08:43:38.239Z,8.60
2023-02-25T08:46:06.614Z,8.60
2023-02-25T08:48:35.319Z,8.60
2023-02-25T08:51:08.204Z,8.50
2023-02-25T08:53:40.261Z,8.40
2023-02-25T08:56:09.720Z,8.30
2023-02-25T08:58:37.717Z,8.20
2023-02-25T09:01:12.993Z,8.10
2023-02-25T09:03:54.953Z,8.10
2023-02-25T09:06:27.997Z,8.00
2023-02-25T09:08:57.766Z,7.80
2023-02-25T09:11:26.571Z,7.80
2023-02-25T09:13:54.538Z,7.70
2023-02-25T09:16:22.222Z,7.70
2023-02-25T09:18:51.304Z,7.60
2023-02-25T09:21:19.613Z,7.60
2023-02-25T09:23:50.621Z,7.60
2023-02-25T09:26:20.273Z,7.60
2023-02-25T09:28:47.841Z,7.60
2023-02-25T09:31:16.691Z,7.70
2023-02-25T09:33:45.555Z,7.80
2023-02-25T09:36:15.997Z,8.00
2023-02-25T09:38:46.062Z,7.90
2023-02-25T09:41:27.808Z,8.00
2023-02-25T09:44:05.699Z,8.00
2023-02-25T09:46:36.186Z,8.00
2023-02-25T09:49:10.591Z,8.00
2023-02-25T09:51:44.049Z,8.00
2023-02-25T09:54:25.890Z,8.00
2023-02-25T09:56:59.180Z,8.10
2023-02-25T09:59:28.434Z,8.10
2023-02-25T10:02:02.211Z,8.10
2023-02-25T10:04:56.328Z,8.10
2023-02-25T10:07:28.654Z,8.20
2023-02-25T10:10:03.139Z,8.30
2023-02-25T10:12:58.877Z,8.30
2023-02-25T10:15:57.434Z,8.40
2023-02-25T10:18:40.825Z,8.50
2023-02-25T10:21:21.079Z,8.50
2023-02-25T10:24:16.618Z,8.60
2023-02-25T10:26:49.975Z,8.60
2023-02-25T10:29:28.405Z,8.60
2023-02-25T10:32:00.834Z,8.70
2023-02-25T10:34:30.274Z,8.70
2023-02-25T10:36:59.801Z,8.80
2023-02-25T10:39:28.619Z,8.80
2023-02-25T10:41:56.270Z,8.90
2023-02-25T10:44:23.842Z,9.00
2023-02-25T10:47:04.043Z,9.00
2023-02-25T10:49:38.079Z,9.00
2023-02-25T10:52:17.980Z,9.00
2023-02-25T10:54:48.619Z,8.90
2023-02-25T10:57:18.918Z,8.90
2023-02-25T10:59:46.854Z,8.90
2023-02-25T11:02:27.844Z,8.90
2023-02-25T11:04:55.638Z,8.80
2023-02-25T11:07:39.889Z,8.80
2023-02-25T11:10:19.526Z,8.90
2023-02-25T11:12:49.673Z,9.00
2023-02-25T11:15:45.151Z,9.20
2023-02-25T11:18:29.490Z,9.20
2023-02-25T11:21:02.763Z,9.20
2023-02-25T11:23:48.997Z,9.30
2023-02-25T11:26:39.357Z,9.30
2023-02-25T11:29:13.456Z,9.40
2023-02-25T11:31:43.159Z,9.40
2023-02-25T11:34:21.186Z,9.50
2023-02-25T11:36:51.163Z,9.60
2023-02-25T11:39:22.905Z,9.70
2023-02-25T11:41:53.512Z,9.80
2023-02-25T11:44:27.009Z,9.90
2023-02-25T11:46:56.718Z,9.90
2023-02-25T11:49:53.158Z,9.80
2023-02-25T11:52:47.193Z,9.60
2023-02-25T11:55:29.821Z,9.40
2023-02-25T11:58:25.272Z,9.10
2023-02-25T12:00:59.807Z,8.80
2023-02-25T12:03:37.988Z,8.50
2023-02-25T12:06:31.106Z,8.30
2023-02-25T12:09:29.771Z,8.10
2023-02-25T12:12:28.190Z,7.90
2023-02-25T12:15:33.088Z,7.70
2023-02-25T12:18:32.469Z,7.50
2023-02-25T12:21:19.687Z,7.30
2023-02-25T12:24:19.772Z,7.10
2023-02-25T12:27:07.891Z,6.90
2023-02-25T12:29:56.309Z,6.80
2023-02-25T12:32:32.627Z,6.60
2023-02-25T12:35:15.364Z,6.50
2023-02-25T12:38:19.732Z,6.40
2023-02-25T12:41:14.598Z,6.40
2023-02-25T12:44:12.854Z,6.30
2023-02-25T12:46:50.561Z,6.30
2023-02-25T12:49:54.699Z,6.30
2023-02-25T12:52:51.214Z,6.30
2023-02-25T12:55:44.781Z,6.30
2023-02-25T12:58:30.843Z,6.40
2023-02-25T13:01:23.345Z,6.40
2023-02-25T13:04:28.285Z,6.40
2023-02-25T13:07:24.371Z,6.50
2023-02-25T13:10:23.332Z,6.50
2023-02-25T13:13:12.372Z,6.50
2023-02-25T13:15:50.292Z,6.60
2023-02-25T13:18:41.030Z,6.60
2023-02-25T13:21:27.470Z,6.70
2023-02-25T13:24:19.258Z,6.80
2023-02-25T13:27:14.693Z,6.90
2023-02-25T13:30:14.710Z,6.90
2023-02-25T13:32:52.911Z,7.00
2023-02-25T13:35:57.363Z,7.00
2023-02-25T13:38:33.335Z,7.10
2023-02-25T13:41:49.151Z,7.20
2023-02-25T13:44:51.802Z,7.10
2023-02-25T13:47:38.021Z,7.10
2023-02-25T14:09:18.237Z,6.60
2023-02-25T14:12:13.167Z,6.60
2023-02-25T14:14:49.650Z,6.70
2023-02-25T14:17:28.531Z,6.70
2023-02-25T14:20:18.456Z,6.70
2023-02-25T14:22:59.315Z,6.80
2023-02-25T14:25:45.622Z,6.90
2023-02-25T14:28:38.742Z,6.90
2023-02-25T14:31:37.998Z,6.90
2023-02-25T14:34:19.160Z,6.80
2023-02-25T14:37:01.558Z,6.80
2023-02-25T14:40:06.509Z,6.80
2023-02-25T14:43:05.092Z,6.80
2023-02-25T14:45:56.387Z,6.80
2023-02-25T14:48:37.833Z,6.80
2023-02-25T14:51:11.422Z,6.80
2023-02-25T14:53:53.964Z,6.80
2023-02-25T14:56:32.486Z,6.90
2023-02-25T14:59:41.440Z,6.90
2023-02-25T15:02:33.837Z,6.90
2023-02-25T15:05:16.406Z,7.00
2023-02-25T15:07:57.128Z,7.10
2023-02-25T15:10:42.774Z,7.20
2023-02-25T15:13:28.854Z,7.30
2023-02-25T15:16:15.189Z,7.30
2023-02-25T15:19:19.761Z,7.30
2023-02-25T15:21:49.563Z,7.30
2023-02-25T15:24:41.710Z,7.30
2023-02-25T15:27:38.037Z,7.30
2023-02-25T15:30:10.193Z,7.20
2023-02-25T15:33:04.950Z,7.20
2023-02-25T15:35:35.442Z,7.30
2023-02-25T15:38:07.108Z,7.20
2023-02-25T15:40:34.764Z,7.20
2023-02-25T15:43:26.292Z,7.20
2023-02-25T15:46:25.996Z,7.10
2023-02-25T15:49:30.131Z,7.00
2023-02-25T15:52:09.528Z,7.00
2023-02-25T15:54:36.902Z,6.90
2023-02-25T15:57:25.196Z,6.80
2023-02-25T15:59:55.580Z,6.80
2023-02-25T16:02:28.970Z,6.70
2023-02-25T16:05:00.599Z,6.70
2023-02-25T16:07:34.441Z,6.60
2023-02-25T16:10:08.189Z,6.60
2023-02-25T16:12:38.626Z,6.60
2023-02-25T16:15:06.942Z,6.60
2023-02-25T16:17:36.132Z,6.50
2023-02-25T16:20:13.123Z,6.40
2023-02-25T16:22:45.712Z,6.30
2023-02-25T16:25:16.588Z,6.20
2023-02-25T16:28:04.950Z,6.10
2023-02-25T16:30:43.235Z,6.00
2023-02-25T16:33:30.528Z,5.80
2023-02-25T16:36:09.791Z,5.70
2023-02-25T16:38:56.855Z,5.60
2023-02-25T16:41:33.377Z,5.50
2023-02-25T16:44:05.720Z,5.40
2023-02-25T16:46:39.350Z,5.30
2023-02-25T16:49:26.367Z,5.30
2023-02-25T16:51:54.780Z,5.30
2023-02-25T16:54:33.638Z,5.20
2023-02-25T16:57:06.885Z,5.20
2023-02-25T16:59:36.359Z,5.10
2023-02-25T17:02:22.162Z,5.10
2023-02-25T17:04:52.302Z,5.00
2023-02-25T17:07:28.002Z,5.00
2023-02-25T17:10:02.790Z,5.00
2023-02-25T17:12:45.438Z,5.00
2023-02-25T17:15:26.225Z,4.90
2023-02-25T17:18:01.624Z,4.90
2023-02-25T17:20:29.378Z,5.00
2023-02-25T17:22:59.293Z,4.90
2023-02-25T17:25:34.838Z,4.90
2023-02-25T17:28:02.658Z,4.90
2023-02-25T17:30:47.146Z,4.90
2023-02-25T17:33:18.132Z,4.90
2023-02-25T17:35:47.884Z,5.00
2023-02-25T17:38:19.618Z,5.00
2023-02-25T17:40:47.787Z,5.00
2023-02-25T17:43:21.142Z,5.00
2023-02-25T17:45:57.711Z,5.00
2023-02-25T17:48:30.953Z,5.00
2023-02-25T17:51:07.824Z,5.00
2023-02-25T17:53:48.857Z,5.00
2023-02-25T17:56:23.076Z,5.00
2023-02-25T17:58:52.354Z,4.90
2023-02-25T18:01:31.371Z,4.90
2023-02-25T18:04:05.354Z,4.90
2023-02-25T18:06:43.024Z,4.80
2023-02-25T18:09:45.893Z,4.80
2023-02-25T18:12:26.034Z,4.80
2023-02-25T18:14:57.439Z,4.70
2023-02-25T18:17:32.026Z,4.70
2023-02-25T18:20:03.010Z,4.70
2023-02-25T18:22:36.535Z,4.70
2023-02-25T18:25:27.506Z,4.70
2023-02-25T18:27:55.127Z,4.70
2023-02-25T18:30:26.212Z,4.60
2023-02-25T18:32:54.128Z,4.60
2023-02-25T18:35:22.222Z,4.60
2023-02-25T18:37:52.057Z,4.50
2023-02-25T18:40:30.632Z,4.50
2023-02-25T18:42:59.703Z,4.40
2023-02-25T18:45:29.243Z,4.40
2023-02-25T18:47:57.346Z,4.40
2023-02-25T18:50:25.536Z,4.30
2023-02-25T18:52:54.337Z,4.30
2023-02-25T18:55:25.418Z,4.30
2023-02-25T18:57:54.625Z,4.30
2023-02-25T19:00:24.462Z,4.20
2023-02-25T19:02:55.233Z,4.20
2023-02-25T19:05:23.784Z,4.20
2023-02-25T19:07:51.458Z,4.20
2023-02-25T19:10:23.678Z,4.20
2023-02-25T19:12:53.752Z,4.30
2023-02-25T19:15:23.073Z,4.30
2023-02-25T19:17:50.526Z,4.30
2023-02-25T19:20:19.793Z,4.30
2023-02-25T19:22:49.791Z,4.30
2023-02-25T19:25:26.914Z,4.30
2023-02-25T19:27:56.045Z,4.20
2023-02-25T19:30:26.143Z,4.20
2023-02-25T19:32:53.722Z,4.20
2023-02-25T19:35:21.649Z,4.20
2023-02-25T19:37:49.343Z,4.10
2023-02-25T19:40:17.303Z,4.10
2023-02-25T19:42:45.154Z,4.00
2023-02-25T19:45:19.198Z,4.00
2023-02-25T19:47:48.434Z,3.90
2023-02-25T19:50:17.942Z,3.90
2023-02-25T19:52:45.779Z,3.90
2023-02-25T19:55:14.369Z,3.80
2023-02-25T19:57:42.588Z,3.80
2023-02-25T20:00:13.915Z,3.70
2023-02-25T20:02:41.647Z,3.60
2023-02-25T20:05:10.395Z,3.60
2023-02-25T20:07:37.700Z,3.50
2023-02-25T20:10:06.665Z,3.50
2023-02-25T20:12:34.182Z,3.40
2023-02-25T20:15:01.863Z,3.30
2023-02-25T20:17:29.389Z,3.20
2023-02-25T20:19:56.644Z,3.20
2023-02-25T20:22:23.926Z,3.10
2023-02-25T20:24:52.065Z,3.10
2023-02-25T20:27:19.315Z,3.00
2023-02-25T20:29:47.566Z,3.00
2023-02-25T20:32:16.284Z,3.00
2023-02-25T20:34:43.726Z,2.90
2023-02-25T20:37:19.873Z,2.90
2023-02-25T20:39:53.578Z,2.90
2023-02-25T20:42:27.455Z,2.90
2023-02-25T20:44:55.767Z,2.80
2023-02-25T20:47:23.144Z,2.80
2023-02-25T20:49:51.701Z,2.80
2023-02-25T20:52:19.894Z,2.80
2023-02-25T20:54:49.611Z,2.80
2023-02-25T20:57:21.010Z,2.80
2023-02-25T20:59:48.674Z,2.80
2023-02-25T21:02:17.267Z,2.90
2023-02-25T21:04:45.392Z,2.90
2023-02-25T21:07:16.219Z,2.90
2023-02-25T21:09:43.704Z,2.90
2023-02-25T21:12:11.151Z,3.00
2023-02-25T21:14:38.356Z,3.00
2023-02-25T21:17:09.246Z,3.00
2023-02-25T21:19:38.868Z,3.00
2023-02-25T21:22:07.598Z,3.10
2023-02-25T21:24:36.633Z,3.10
2023-02-25T21:27:04.270Z,3.10
2023-02-25T21:29:32.513Z,3.10
2023-02-25T21:31:59.917Z,3.20
2023-02-25T21:34:27.527Z,3.20
2023-02-25T21:36:58.291Z,3.20
2023-02-25T21:39:26.037Z,3.20
2023-02-25T21:41:53.491Z,3.20
2023-02-25T21:44:21.103Z,3.20
2023-02-25T21:46:48.738Z,3.20
2023-02-25T21:49:16.042Z,3.20
2023-02-25T21:51:43.463Z,3.20
2023-02-25T21:54:10.790Z,3.20
2023-02-25T21:56:39.369Z,3.10
2023-02-25T21:59:06.691Z,3.10
2023-02-25T22:01:37.045Z,3.00
2023-02-25T22:04:05.149Z,3.00
2023-02-25T22:06:33.076Z,2.90
2023-02-25T22:09:00.901Z,2.80
2023-02-25T22:11:33.831Z,2.80
2023-02-25T22:14:02.728Z,2.70
2023-02-25T22:16:30.201Z,2.60
2023-02-25T22:18:58.592Z,2.60
2023-02-25T22:21:28.751Z,2.50
2023-02-25T22:23:58.503Z,2.50
2023-02-25T22:26:28.765Z,2.40
2023-02-25T22:28:58.081Z,2.40
2023-02-25T22:31:26.483Z,2.30
2023-02-25T22:33:56.378Z,2.30
2023-02-25T22:36:25.205Z,2.30
2023-02-25T22:38:53.052Z,2.20
2023-02-25T22:41:29.162Z,2.20
2023-02-25T22:43:59.814Z,2.20
2023-02-25T22:46:30.076Z,2.10
2023-02-25T22:48:58.247Z,2.00
2023-02-25T22:51:45.025Z,2.10
2023-02-25T22:54:14.426Z,2.10
2023-02-25T22:56:42.730Z,2.00
2023-02-25T22:59:10.257Z,1.90
2023-02-25T23:01:38.507Z,1.90
2023-02-25T23:04:07.985Z,1.90
2023-02-25T23:06:43.598Z,1.90
2023-02-25T23:09:14.018Z,1.80
2023-02-25T23:11:42.853Z,1.80
2023-02-25T23:14:10.875Z,1.80
2023-02-25T23:16:40.851Z,1.80
2023-02-25T23:19:11.367Z,1.70
2023-02-25T23:21:38.972Z,1.70
2023-02-25T23:24:08.150Z,1.70
2023-02-25T23:26:41.500Z,1.70
2023-02-25T23:29:11.173Z,1.70
2023-02-25T23:31:43.382Z,1.70
2023-02-25T23:34:13.701Z,1.70
2023-02-25T23:36:43.209Z,1.60
2023-02-25T23:39:12.461Z,1.60
2023-02-25T23:41:39.944Z,1.60
2023-02-25T23:44:11.311Z,1.60
2023-02-25T23:46:42.121Z,1.50
2023-02-25T23:49:09.522Z,1.50
2023-02-25T23:51:36.935Z,1.50
2023-02-25T23:54:05.754Z,1.40
2023-02-25T23:56:34.218Z,1.40
2023-02-25T23:59:02.569Z,1.40
